Time;durP1;ratioP1;P1;durP2;ratioP2;P2;SDS_P1;SDS_P2;PMS_P1;PMS_P2;Temp;Humidity;BMP_temperature;BMP_pressure;BME280_temperature;BME280_humidity;BME280_pressure;Samples;Min_cycle;Max_cycle;Signal;HPM_P1;HPM_P2
2022/05/17 00:01:25;;;;;;;0.20;0.00;;;;;;;;;;4181031;28;20091;-40
2022/05/17 00:03:27;;;;;;;0.50;0.20;;;;;;;;;;4181037;28;20095;-42
2022/05/17 00:05:30;;;;;;;0.30;0.05;;;;;;;;;;4181016;28;20055;-42
2022/05/17 00:07:31;;;;;;;0.10;0.05;;;;;;;;;;4181266;28;20056;-42
2022/05/17 00:09:32;;;;;;;0.40;0.10;;;;;;;;;;4180705;28;20049;-41
2022/05/17 00:11:34;;;;;;;0.10;0.10;;;;;;;;;;4181187;28;20412;-42
2022/05/17 00:13:35;;;;;;;0.10;0.03;;;;;;;;;;4180306;28;20548;-42
2022/05/17 00:15:38;;;;;;;0.20;0.00;;;;;;;;;;4179522;28;20049;-41
2022/05/17 00:17:39;;;;;;;0.10;0.10;;;;;;;;;;4181068;28;20049;-42
2022/05/17 00:19:40;;;;;;;0.30;0.17;;;;;;;;;;4180919;28;20503;-42
2022/05/17 00:21:41;;;;;;;0.17;0.10;;;;;;;;;;4181268;28;20049;-40
2022/05/17 00:23:43;;;;;;;0.20;0.10;;;;;;;;;;4180671;28;20097;-42
2022/05/17 00:25:45;;;;;;;0.25;0.10;;;;;;;;;;4180749;28;20090;-41
2022/05/17 00:27:46;;;;;;;0.15;0.10;;;;;;;;;;4179415;28;20075;-42
2022/05/17 00:29:47;;;;;;;0.08;0.00;;;;;;;;;;4180189;28;20447;-41
2022/05/17 00:31:48;;;;;;;0.10;0.10;;;;;;;;;;4180889;28;20052;-41
2022/05/17 00:33:49;;;;;;;0.10;0.10;;;;;;;;;;4180394;28;20048;-42
2022/05/17 00:35:50;;;;;;;0.30;0.10;;;;;;;;;;4212491;28;20052;-41
2022/05/17 00:37:51;;;;;;;0.20;0.10;;;;;;;;;;4179517;28;20112;-41
2022/05/17 00:39:52;;;;;;;0.47;0.20;;;;;;;;;;4180348;28;20052;-38
2022/05/17 00:41:53;;;;;;;0.10;0.10;;;;;;;;;;4180500;28;20101;-42
2022/05/17 00:46:14;;;;;;;0.10;0.10;;;;;;;;;;4180596;28;20048;-42
2022/05/17 00:48:17;;;;;;;0.30;0.10;;;;;;;;;;4180596;28;20057;-42
2022/05/17 00:50:24;;;;;;;0.10;0.10;;;;;;;;;;4180213;28;20044;-40
2022/05/17 00:52:25;;;;;;;0.10;0.10;;;;;;;;;;4180482;28;20471;-42
2022/05/17 00:54:26;;;;;;;0.10;0.10;;;;;;;;;;4180046;28;20088;-41
2022/05/17 00:56:27;;;;;;;0.10;0.10;;;;;;;;;;4180297;28;20045;-42
2022/05/17 00:58:31;;;;;;;0.10;0.10;;;;;;;;;;4180252;28;20071;-42
2022/05/17 01:00:35;;;;;;;0.17;0.10;;;;;;;;;;4179837;28;20049;-40
2022/05/17 01:02:36;;;;;;;0.25;0.10;;;;;;;;;;4179952;28;20053;-40
2022/05/17 01:04:38;;;;;;;0.10;0.10;;;;;;;;;;4179861;28;20075;-43
2022/05/17 01:06:59;;;;;;;0.20;0.05;;;;;;;;;;4195251;28;20405;-42
2022/05/17 01:09:01;;;;;;;0.13;0.08;;;;;;;;;;4179810;28;20098;-41
2022/05/17 01:11:01;;;;;;;0.00;0.00;;;;;;;;;;4179978;28;20374;-42
2022/05/17 01:15:22;;;;;;;0.10;0.10;;;;;;;;;;4178228;28;20057;-41
2022/05/17 01:17:24;;;;;;;0.13;0.00;;;;;;;;;;4180378;28;20128;-42
2022/05/17 01:19:26;;;;;;;0.08;0.08;;;;;;;;;;4178457;28;20053;-42
2022/05/17 01:21:27;;;;;;;0.30;0.08;;;;;;;;;;4180051;28;20491;-42
2022/05/17 01:23:28;;;;;;;0.08;0.00;;;;;;;;;;4179790;28;20094;-42
2022/05/17 01:25:29;;;;;;;0.13;0.10;;;;;;;;;;4179266;28;20052;-42
2022/05/17 01:27:38;;;;;;;0.10;0.10;;;;;;;;;;4179618;28;20056;-42
2022/05/17 01:29:41;;;;;;;0.13;0.00;;;;;;;;;;4179180;28;20083;-42
2022/05/17 01:31:42;;;;;;;0.25;0.20;;;;;;;;;;4179813;28;20079;-42
2022/05/17 01:33:43;;;;;;;0.10;0.03;;;;;;;;;;4178176;28;20444;-41
2022/05/17 01:35:44;;;;;;;0.70;0.40;;;;;;;;;;4179705;28;20139;-41
2022/05/17 01:37:48;;;;;;;0.20;0.10;;;;;;;;;;4179620;28;20052;-42
2022/05/17 01:39:49;;;;;;;0.45;0.10;;;;;;;;;;4179429;28;20049;-41
2022/05/17 01:41:50;;;;;;;0.10;0.10;;;;;;;;;;4179552;28;20138;-42
2022/05/17 01:43:53;;;;;;;0.68;0.20;;;;;;;;;;4210956;28;20419;-41
2022/05/17 01:45:54;;;;;;;0.00;0.00;;;;;;;;;;4179734;28;20044;-42
2022/05/17 01:47:55;;;;;;;0.10;0.10;;;;;;;;;;4179597;28;20106;-42
2022/05/17 01:49:56;;;;;;;0.00;0.00;;;;;;;;;;4179448;28;20083;-40
2022/05/17 01:51:57;;;;;;;0.15;0.13;;;;;;;;;;4179504;28;20049;-42
2022/05/17 01:53:58;;;;;;;0.10;0.10;;;;;;;;;;4179074;28;20041;-41
2022/05/17 01:56:02;;;;;;;0.20;0.10;;;;;;;;;;4179299;28;20048;-40
2022/05/17 01:58:04;;;;;;;0.15;0.10;;;;;;;;;;4167000;28;20103;-42
2022/05/17 02:00:06;;;;;;;1.10;0.35;;;;;;;;;;4160497;28;20057;-42
2022/05/17 02:02:07;;;;;;;0.20;0.10;;;;;;;;;;4160701;28;20512;-41
2022/05/17 02:04:08;;;;;;;0.00;0.00;;;;;;;;;;4160596;28;20152;-42
2022/05/17 02:06:09;;;;;;;0.03;0.03;;;;;;;;;;4160864;28;20165;-39
2022/05/17 02:08:10;;;;;;;0.17;0.10;;;;;;;;;;4160980;28;20095;-42
2022/05/17 02:10:12;;;;;;;0.10;0.10;;;;;;;;;;4160188;28;20095;-40
2022/05/17 02:12:13;;;;;;;0.10;0.05;;;;;;;;;;4160800;28;20049;-42
2022/05/17 02:14:14;;;;;;;0.50;0.10;;;;;;;;;;4160277;28;20069;-42
2022/05/17 02:16:16;;;;;;;0.10;0.10;;;;;;;;;;4160796;28;20440;-42
2022/05/17 02:18:16;;;;;;;0.35;0.20;;;;;;;;;;4160863;28;20136;-42
2022/05/17 02:20:18;;;;;;;0.00;0.00;;;;;;;;;;4160655;28;20493;-42
2022/05/17 02:22:19;;;;;;;0.15;0.10;;;;;;;;;;4160366;28;20454;-41
2022/05/17 02:24:22;;;;;;;0.40;0.10;;;;;;;;;;4165488;28;20060;-42
2022/05/17 02:26:22;;;;;;;0.10;0.10;;;;;;;;;;4177101;28;20142;-42
2022/05/17 02:28:23;;;;;;;0.32;0.10;;;;;;;;;;4177288;28;20084;-40
2022/05/17 02:30:25;;;;;;;0.05;0.00;;;;;;;;;;4176841;28;20052;-42
2022/05/17 02:32:25;;;;;;;0.43;0.13;;;;;;;;;;4177277;28;20099;-42
2022/05/17 02:34:27;;;;;;;0.28;0.20;;;;;;;;;;4176592;28;20052;-42
2022/05/17 02:36:29;;;;;;;0.45;0.10;;;;;;;;;;4177163;28;20560;-42
2022/05/17 02:38:30;;;;;;;0.08;0.08;;;;;;;;;;4179735;28;20098;-41
2022/05/17 02:40:31;;;;;;;0.35;0.10;;;;;;;;;;4180294;28;20080;-42
2022/05/17 02:42:31;;;;;;;0.40;0.10;;;;;;;;;;4180310;28;20561;-42
2022/05/17 02:44:32;;;;;;;0.45;0.20;;;;;;;;;;4179714;28;20068;-41
2022/05/17 02:46:34;;;;;;;0.00;0.00;;;;;;;;;;4192600;28;20602;-42
2022/05/17 02:48:35;;;;;;;0.25;0.10;;;;;;;;;;4198607;28;20517;-40
2022/05/17 02:50:36;;;;;;;0.15;0.15;;;;;;;;;;4198632;28;20052;-41
2022/05/17 02:52:37;;;;;;;0.30;0.10;;;;;;;;;;4198676;28;20136;-42
2022/05/17 02:54:39;;;;;;;0.15;0.10;;;;;;;;;;4198506;28;20385;-41
2022/05/17 02:56:40;;;;;;;0.00;0.00;;;;;;;;;;4198874;28;20048;-42
2022/05/17 02:58:41;;;;;;;0.47;0.10;;;;;;;;;;4198213;28;20135;-42
2022/05/17 03:00:42;;;;;;;0.32;0.10;;;;;;;;;;4184815;28;20094;-42
2022/05/17 03:02:44;;;;;;;0.10;0.10;;;;;;;;;;4181951;28;20052;-42
2022/05/17 03:04:45;;;;;;;0.10;0.10;;;;;;;;;;4181874;28;20047;-42
2022/05/17 03:06:46;;;;;;;0.20;0.10;;;;;;;;;;4181777;28;20053;-41
2022/05/17 03:08:47;;;;;;;0.15;0.05;;;;;;;;;;4181705;28;20045;-42
2022/05/17 03:10:48;;;;;;;0.00;0.00;;;;;;;;;;4182110;28;20092;-42
2022/05/17 03:12:49;;;;;;;0.20;0.10;;;;;;;;;;4181933;28;20095;-42
2022/05/17 03:14:50;;;;;;;0.45;0.20;;;;;;;;;;4181648;28;20220;-42
2022/05/17 03:16:50;;;;;;;0.10;0.10;;;;;;;;;;4181906;28;20551;-42
2022/05/17 03:18:51;;;;;;;0.20;0.10;;;;;;;;;;4181808;28;20473;-42
2022/05/17 03:20:52;;;;;;;0.30;0.10;;;;;;;;;;4181999;28;20431;-41
2022/05/17 03:22:53;;;;;;;0.45;0.10;;;;;;;;;;4181536;28;20045;-41
2022/05/17 03:24:54;;;;;;;0.80;0.20;;;;;;;;;;4181323;28;20057;-40
2022/05/17 03:26:55;;;;;;;0.10;0.10;;;;;;;;;;4181914;28;20202;-41
2022/05/17 03:28:58;;;;;;;0.10;0.10;;;;;;;;;;4181080;28;20056;-42
2022/05/17 03:30:59;;;;;;;0.05;0.05;;;;;;;;;;4181591;28;20049;-42
2022/05/17 03:33:00;;;;;;;0.10;0.08;;;;;;;;;;4181730;28;20382;-41
2022/05/17 03:35:03;;;;;;;0.43;0.20;;;;;;;;;;4181237;28;20053;-41
2022/05/17 03:37:04;;;;;;;0.10;0.10;;;;;;;;;;4181241;28;20053;-42
2022/05/17 03:39:05;;;;;;;0.20;0.10;;;;;;;;;;4181244;28;20057;-40
2022/05/17 03:41:06;;;;;;;0.10;0.10;;;;;;;;;;4181330;28;20247;-42
2022/05/17 03:43:07;;;;;;;0.08;0.08;;;;;;;;;;4181370;28;20048;-42
2022/05/17 03:45:09;;;;;;;0.10;0.10;;;;;;;;;;4180876;28;20049;-42
2022/05/17 03:47:10;;;;;;;0.03;0.03;;;;;;;;;;4181176;28;20045;-42
2022/05/17 03:49:11;;;;;;;1.27;0.10;;;;;;;;;;4180486;28;20143;-42
2022/05/17 03:51:13;;;;;;;0.17;0.17;;;;;;;;;;4181211;28;20107;-42
2022/05/17 03:53:14;;;;;;;0.20;0.10;;;;;;;;;;4181242;28;20489;-42
2022/05/17 03:55:16;;;;;;;0.03;0.00;;;;;;;;;;4180917;28;20055;-42
2022/05/17 03:57:16;;;;;;;0.30;0.10;;;;;;;;;;4181242;28;20444;-40
2022/05/17 03:59:18;;;;;;;0.03;0.03;;;;;;;;;;4180531;28;20493;-42
2022/05/17 04:01:18;;;;;;;0.00;0.00;;;;;;;;;;4181088;28;20094;-39
2022/05/17 04:03:19;;;;;;;0.20;0.10;;;;;;;;;;4180946;28;20178;-43
2022/05/17 04:05:20;;;;;;;0.20;0.20;;;;;;;;;;4180785;28;20095;-42
2022/05/17 04:07:22;;;;;;;0.10;0.00;;;;;;;;;;4181036;28;20053;-42
2022/05/17 04:09:23;;;;;;;0.40;0.00;;;;;;;;;;4180884;28;20119;-43
2022/05/17 04:11:26;;;;;;;0.00;0.00;;;;;;;;;;4181276;28;20052;-42
2022/05/17 04:13:29;;;;;;;0.35;0.10;;;;;;;;;;4179663;28;20561;-42
2022/05/17 04:15:31;;;;;;;0.30;0.10;;;;;;;;;;4180552;28;20052;-41
2022/05/17 04:17:32;;;;;;;0.00;0.00;;;;;;;;;;4179668;28;20055;-42
2022/05/17 04:19:35;;;;;;;0.38;0.22;;;;;;;;;;4180683;28;20469;-42
2022/05/17 04:21:36;;;;;;;0.25;0.10;;;;;;;;;;4180747;28;20377;-43
2022/05/17 04:23:37;;;;;;;0.10;0.10;;;;;;;;;;4180521;28;20071;-42
2022/05/17 04:25:38;;;;;;;0.00;0.00;;;;;;;;;;4180609;28;20163;-41
2022/05/17 04:27:39;;;;;;;0.15;0.10;;;;;;;;;;4180677;28;20340;-42
2022/05/17 04:29:41;;;;;;;0.20;0.10;;;;;;;;;;4180448;28;20053;-42
2022/05/17 04:31:42;;;;;;;0.20;0.10;;;;;;;;;;4180698;28;20049;-42
2022/05/17 04:33:43;;;;;;;0.10;0.10;;;;;;;;;;4178722;28;20111;-42
2022/05/17 04:35:44;;;;;;;0.10;0.10;;;;;;;;;;4162001;28;20049;-41
2022/05/17 04:37:46;;;;;;;0.00;0.00;;;;;;;;;;4162070;28;20104;-42
2022/05/17 04:39:46;;;;;;;0.20;0.10;;;;;;;;;;4161872;28;20045;-42
2022/05/17 04:41:47;;;;;;;1.05;0.10;;;;;;;;;;4162117;28;20123;-42
2022/05/17 04:43:48;;;;;;;0.68;0.15;;;;;;;;;;4161448;28;20554;-42
2022/05/17 04:45:49;;;;;;;0.05;0.03;;;;;;;;;;4160151;28;20041;-42
2022/05/17 04:47:50;;;;;;;0.10;0.10;;;;;;;;;;4162019;28;20126;-42
2022/05/17 04:49:51;;;;;;;0.10;0.10;;;;;;;;;;4180637;28;20048;-42
2022/05/17 04:51:53;;;;;;;0.03;0.00;;;;;;;;;;4196847;28;20094;-43
2022/05/17 04:53:55;;;;;;;0.10;0.10;;;;;;;;;;4196607;28;20060;-42
2022/05/17 04:55:56;;;;;;;0.10;0.10;;;;;;;;;;4196598;28;20049;-41
2022/05/17 04:57:57;;;;;;;0.40;0.25;;;;;;;;;;4196979;28;20101;-41
2022/05/17 04:59:59;;;;;;;0.10;0.10;;;;;;;;;;4188330;28;20389;-42
2022/05/17 05:02:00;;;;;;;0.10;0.10;;;;;;;;;;4161983;28;20073;-43
2022/05/17 05:04:00;;;;;;;0.10;0.10;;;;;;;;;;4161424;28;20057;-41
2022/05/17 05:06:01;;;;;;;0.20;0.10;;;;;;;;;;4161586;28;20052;-43
2022/05/17 05:08:03;;;;;;;0.10;0.10;;;;;;;;;;4161738;28;20092;-43
2022/05/17 05:10:04;;;;;;;0.10;0.00;;;;;;;;;;4161478;28;20050;-42
2022/05/17 05:12:05;;;;;;;0.10;0.05;;;;;;;;;;4192758;28;20102;-42
2022/05/17 05:14:06;;;;;;;0.20;0.10;;;;;;;;;;4160898;28;20083;-42
2022/05/17 05:16:09;;;;;;;0.63;0.20;;;;;;;;;;4160335;28;20053;-42
2022/05/17 05:18:11;;;;;;;0.73;0.20;;;;;;;;;;4161348;28;20057;-42
2022/05/17 05:20:15;;;;;;;0.20;0.20;;;;;;;;;;4161457;28;20049;-42
2022/05/17 05:22:16;;;;;;;0.35;0.20;;;;;;;;;;4172782;28;20053;-41
2022/05/17 05:24:17;;;;;;;0.35;0.10;;;;;;;;;;4172812;28;20410;-43
2022/05/17 05:26:18;;;;;;;0.20;0.10;;;;;;;;;;4173686;28;20049;-42
2022/05/17 05:28:19;;;;;;;0.10;0.10;;;;;;;;;;4170414;28;20052;-42
2022/05/17 05:30:20;;;;;;;0.20;0.20;;;;;;;;;;4176722;28;20473;-43
2022/05/17 05:32:22;;;;;;;0.32;0.20;;;;;;;;;;4175702;28;20115;-41
2022/05/17 05:34:24;;;;;;;1.10;0.30;;;;;;;;;;4173737;28;20131;-42
2022/05/17 05:36:26;;;;;;;0.20;0.10;;;;;;;;;;4184615;28;20057;-43
2022/05/17 05:38:27;;;;;;;0.15;0.10;;;;;;;;;;4172236;28;20177;-42
2022/05/17 05:40:28;;;;;;;0.20;0.10;;;;;;;;;;4170632;28;20480;-42
2022/05/17 05:42:29;;;;;;;0.45;0.20;;;;;;;;;;4168410;28;20106;-40
2022/05/17 05:44:32;;;;;;;2.28;0.20;;;;;;;;;;4180683;28;20048;-42
2022/05/17 05:46:33;;;;;;;0.10;0.10;;;;;;;;;;4175954;28;20048;-42
2022/05/17 05:48:34;;;;;;;0.45;0.22;;;;;;;;;;4173766;28;20429;-42
2022/05/17 05:50:35;;;;;;;1.77;0.10;;;;;;;;;;4164037;28;20401;-42
2022/05/17 05:52:37;;;;;;;0.43;0.10;;;;;;;;;;4159831;28;20044;-43
2022/05/17 05:54:38;;;;;;;0.10;0.10;;;;;;;;;;4165601;28;20052;-42
2022/05/17 05:56:39;;;;;;;0.95;0.20;;;;;;;;;;4155933;28;20659;-42
2022/05/17 05:58:42;;;;;;;2.20;0.22;;;;;;;;;;4156299;28;20049;-43
2022/05/17 06:00:43;;;;;;;1.88;0.20;;;;;;;;;;4155528;28;20053;-42
2022/05/17 06:02:44;;;;;;;0.25;0.10;;;;;;;;;;4137575;28;20095;-43
2022/05/17 06:04:45;;;;;;;1.02;0.20;;;;;;;;;;4161162;28;20138;-42
2022/05/17 06:06:46;;;;;;;0.20;0.10;;;;;;;;;;4153406;28;20198;-43
2022/05/17 06:08:47;;;;;;;1.27;0.10;;;;;;;;;;4167162;28;20141;-43
2022/05/17 06:10:49;;;;;;;0.55;0.10;;;;;;;;;;4148161;28;20044;-41
2022/05/17 06:12:50;;;;;;;0.10;0.10;;;;;;;;;;4154916;28;20055;-41
2022/05/17 06:14:51;;;;;;;0.80;0.20;;;;;;;;;;4158931;28;20049;-41
2022/05/17 06:16:52;;;;;;;0.30;0.13;;;;;;;;;;4150395;28;20052;-43
2022/05/17 06:18:53;;;;;;;0.30;0.10;;;;;;;;;;4157852;28;20053;-42
2022/05/17 06:20:55;;;;;;;1.85;0.20;;;;;;;;;;4167241;28;20140;-42
2022/05/17 06:22:56;;;;;;;0.75;0.30;;;;;;;;;;4168096;28;20162;-43
2022/05/17 06:24:57;;;;;;;0.20;0.20;;;;;;;;;;4179208;28;20534;-42
2022/05/17 06:26:59;;;;;;;1.08;0.10;;;;;;;;;;4167861;28;20203;-42
2022/05/17 06:29:00;;;;;;;0.57;0.10;;;;;;;;;;4158235;28;20561;-41
2022/05/17 06:31:01;;;;;;;0.30;0.10;;;;;;;;;;4150545;28;20393;-42
2022/05/17 06:33:02;;;;;;;0.08;0.00;;;;;;;;;;4167884;28;20048;-42
2022/05/17 06:35:04;;;;;;;0.20;0.10;;;;;;;;;;4152515;28;20045;-43
2022/05/17 06:37:06;;;;;;;0.10;0.10;;;;;;;;;;4147924;28;20114;-42
2022/05/17 06:39:08;;;;;;;0.52;0.25;;;;;;;;;;4148280;28;20064;-43
2022/05/17 06:41:10;;;;;;;0.28;0.10;;;;;;;;;;4148812;28;21432;-42
2022/05/17 06:43:11;;;;;;;2.42;0.20;;;;;;;;;;4159477;28;20383;-42
2022/05/17 06:45:13;;;;;;;0.57;0.25;;;;;;;;;;4179102;28;20054;-42
2022/05/17 06:47:14;;;;;;;0.38;0.28;;;;;;;;;;4152575;28;20150;-42
2022/05/17 06:49:16;;;;;;;0.10;0.10;;;;;;;;;;4161330;28;20044;-42
2022/05/17 06:51:17;;;;;;;0.10;0.10;;;;;;;;;;4154064;28;20057;-41
2022/05/17 06:53:18;;;;;;;0.55;0.30;;;;;;;;;;4156581;28;20086;-42
2022/05/17 06:55:22;;;;;;;0.75;0.10;;;;;;;;;;4155137;28;20928;-43
2022/05/17 06:57:23;;;;;;;3.30;0.28;;;;;;;;;;4148867;28;20056;-42
2022/05/17 06:59:24;;;;;;;0.43;0.22;;;;;;;;;;4135088;28;20052;-42
2022/05/17 07:01:25;;;;;;;1.05;0.20;;;;;;;;;;4149670;28;20542;-43
2022/05/17 07:03:26;;;;;;;0.90;0.20;;;;;;;;;;4146744;28;20110;-42
2022/05/17 07:05:28;;;;;;;1.75;0.20;;;;;;;;;;4146817;28;20075;-42
2022/05/17 07:07:29;;;;;;;1.08;0.20;;;;;;;;;;4151328;28;20060;-42
2022/05/17 07:09:30;;;;;;;0.05;0.05;;;;;;;;;;4158514;28;20055;-41
2022/05/17 07:13:52;;;;;;;2.00;0.10;;;;;;;;;;4153261;28;20685;-43
2022/05/17 07:15:53;;;;;;;0.20;0.17;;;;;;;;;;4146875;28;20052;-43
2022/05/17 07:17:56;;;;;;;0.35;0.20;;;;;;;;;;4148227;28;20610;-42
2022/05/17 07:19:57;;;;;;;0.22;0.10;;;;;;;;;;4151936;28;20057;-43
2022/05/17 07:21:59;;;;;;;2.13;0.20;;;;;;;;;;4146190;28;20074;-42
2022/05/17 07:24:00;;;;;;;1.33;0.20;;;;;;;;;;4155619;28;20052;-43
2022/05/17 07:26:02;;;;;;;0.68;0.10;;;;;;;;;;4159778;28;20056;-43
2022/05/17 07:28:03;;;;;;;0.35;0.10;;;;;;;;;;4155150;28;20103;-43
2022/05/17 07:30:05;;;;;;;0.28;0.10;;;;;;;;;;4156794;28;21514;-42
2022/05/17 07:32:06;;;;;;;0.28;0.28;;;;;;;;;;4149716;28;20087;-43
2022/05/17 07:34:07;;;;;;;0.98;0.30;;;;;;;;;;4143030;28;20044;-42
2022/05/17 07:36:08;;;;;;;0.82;0.20;;;;;;;;;;4165222;28;20059;-43
2022/05/17 07:38:09;;;;;;;0.60;0.30;;;;;;;;;;4147401;28;20052;-42
2022/05/17 07:40:12;;;;;;;0.13;0.10;;;;;;;;;;4150976;28;20056;-43
2022/05/17 07:42:13;;;;;;;0.17;0.17;;;;;;;;;;4153411;28;20123;-42
2022/05/17 07:44:14;;;;;;;0.40;0.20;;;;;;;;;;4164750;28;20554;-42
2022/05/17 07:46:15;;;;;;;0.88;0.30;;;;;;;;;;4144874;28;20080;-43
2022/05/17 07:48:17;;;;;;;3.55;0.20;;;;;;;;;;4152622;28;20056;-42
2022/05/17 07:50:18;;;;;;;1.65;0.30;;;;;;;;;;4132425;28;20643;-42
2022/05/17 07:52:20;;;;;;;2.03;0.40;;;;;;;;;;4156373;28;20996;-42
2022/05/17 07:54:21;;;;;;;0.77;0.20;;;;;;;;;;4147340;28;20052;-39
2022/05/17 07:56:23;;;;;;;0.52;0.17;;;;;;;;;;4143729;28;20052;-42
2022/05/17 07:58:24;;;;;;;0.63;0.10;;;;;;;;;;4147199;28;20510;-41
2022/05/17 08:00:27;;;;;;;2.15;0.20;;;;;;;;;;4136599;28;20051;-43
2022/05/17 08:02:28;;;;;;;3.22;0.20;;;;;;;;;;4146592;28;20061;-43
2022/05/17 08:04:29;;;;;;;0.30;0.10;;;;;;;;;;4150286;28;20057;-42
2022/05/17 08:06:31;;;;;;;1.00;0.20;;;;;;;;;;4147050;28;20045;-43
2022/05/17 08:08:32;;;;;;;0.20;0.20;;;;;;;;;;4145973;28;20052;-43
2022/05/17 08:10:33;;;;;;;0.32;0.20;;;;;;;;;;4143619;28;20852;-43
2022/05/17 08:12:34;;;;;;;1.65;0.20;;;;;;;;;;4149125;28;20122;-42
2022/05/17 08:14:37;;;;;;;0.88;0.32;;;;;;;;;;4155573;28;20423;-42
2022/05/17 08:16:38;;;;;;;0.60;0.35;;;;;;;;;;4135572;28;20153;-42
2022/05/17 08:18:39;;;;;;;1.33;0.38;;;;;;;;;;4127573;28;20056;-42
2022/05/17 08:20:40;;;;;;;0.22;0.17;;;;;;;;;;4137631;28;20457;-42
2022/05/17 08:22:42;;;;;;;0.70;0.20;;;;;;;;;;4142210;28;20086;-42
2022/05/17 08:29:22;;;;;;;1.67;0.10;;;;;;;;;;4140840;28;20057;-40
2022/05/17 08:31:23;;;;;;;1.13;0.20;;;;;;;;;;4150487;28;20652;-42
2022/05/17 08:33:26;;;;;;;1.02;0.20;;;;;;;;;;4149904;28;20094;-41
2022/05/17 08:35:27;;;;;;;1.85;0.22;;;;;;;;;;4143888;28;20044;-43
2022/05/17 08:37:28;;;;;;;0.10;0.10;;;;;;;;;;4140019;28;20799;-43
2022/05/17 08:39:29;;;;;;;1.90;0.22;;;;;;;;;;4140204;28;20075;-42
2022/05/17 08:41:41;;;;;;;0.55;0.20;;;;;;;;;;4136979;28;20064;-43
2022/05/17 08:44:03;;;;;;;0.40;0.10;;;;;;;;;;4140165;28;21951;-42
2022/05/17 08:46:14;;;;;;;1.10;0.30;;;;;;;;;;4145122;28;20044;-42
2022/05/17 08:48:17;;;;;;;2.00;0.20;;;;;;;;;;4145552;28;20715;-42
2022/05/17 08:50:23;;;;;;;0.20;0.20;;;;;;;;;;4130737;28;20118;-42
2022/05/17 08:52:25;;;;;;;0.80;0.30;;;;;;;;;;4145223;28;20100;-41
2022/05/17 08:54:29;;;;;;;0.98;0.15;;;;;;;;;;4138936;28;20388;-41
2022/05/17 08:56:33;;;;;;;0.77;0.10;;;;;;;;;;4174044;28;20106;-36
2022/05/17 08:58:35;;;;;;;0.80;0.30;;;;;;;;;;4144020;28;20052;-41
2022/05/17 09:00:36;;;;;;;1.63;0.20;;;;;;;;;;4136223;28;20048;-41
2022/05/17 09:02:40;;;;;;;0.68;0.30;;;;;;;;;;4127949;28;20713;-42
2022/05/17 09:04:44;;;;;;;0.50;0.20;;;;;;;;;;4168718;28;21707;-42
2022/05/17 09:06:50;;;;;;;1.52;0.30;;;;;;;;;;4142589;28;21400;-40
2022/05/17 09:09:00;;;;;;;1.50;0.15;;;;;;;;;;4147197;28;20094;-41
2022/05/17 09:11:02;;;;;;;0.15;0.13;;;;;;;;;;4131966;28;20443;-42
2022/05/17 09:13:09;;;;;;;0.57;0.20;;;;;;;;;;4133673;28;20060;-42
2022/05/17 09:15:11;;;;;;;0.45;0.30;;;;;;;;;;4127068;28;20053;-42
2022/05/17 09:17:14;;;;;;;1.92;0.20;;;;;;;;;;4139616;28;20111;-41
2022/05/17 09:19:15;;;;;;;0.52;0.20;;;;;;;;;;4137870;28;20045;-42
2022/05/17 09:21:39;;;;;;;0.20;0.17;;;;;;;;;;4140009;28;20059;-41
2022/05/17 09:23:40;;;;;;;0.50;0.20;;;;;;;;;;4131918;28;20781;-42
2022/05/17 09:25:48;;;;;;;0.70;0.20;;;;;;;;;;4132460;28;20053;-42
2022/05/17 09:27:50;;;;;;;0.47;0.10;;;;;;;;;;4142569;28;20056;-42
2022/05/17 09:29:55;;;;;;;1.38;0.20;;;;;;;;;;4139858;28;20060;-42
2022/05/17 09:32:03;;;;;;;0.50;0.20;;;;;;;;;;4145740;28;20481;-39
2022/05/17 09:34:06;;;;;;;1.13;0.28;;;;;;;;;;4141902;28;20455;-41
2022/05/17 09:36:08;;;;;;;0.35;0.22;;;;;;;;;;4145259;28;20507;-42
2022/05/17 09:38:10;;;;;;;0.85;0.30;;;;;;;;;;4142183;28;20137;-41
2022/05/17 09:40:12;;;;;;;0.30;0.30;;;;;;;;;;4150132;28;20551;-42
2022/05/17 09:42:20;;;;;;;2.28;0.30;;;;;;;;;;4139403;28;20661;-42
2022/05/17 09:44:23;;;;;;;2.22;0.40;;;;;;;;;;4144514;28;20146;-40
2022/05/17 09:46:29;;;;;;;0.65;0.32;;;;;;;;;;4139255;28;20060;-43
2022/05/17 09:48:30;;;;;;;1.85;0.13;;;;;;;;;;4149249;28;20586;-42
2022/05/17 09:53:04;;;;;;;3.83;0.30;;;;;;;;;;4173579;28;20078;-40
2022/05/17 09:55:12;;;;;;;3.50;0.55;;;;;;;;;;4143543;28;20571;-40
2022/05/17 09:57:16;;;;;;;0.32;0.20;;;;;;;;;;4139075;28;20437;-41
2022/05/17 09:59:21;;;;;;;0.63;0.20;;;;;;;;;;4128215;28;20364;-41
2022/05/17 10:01:35;;;;;;;1.58;0.20;;;;;;;;;;4124245;28;20057;-43
2022/05/17 10:03:38;;;;;;;2.10;0.25;;;;;;;;;;4126841;28;20053;-41
2022/05/17 10:05:40;;;;;;;1.48;0.22;;;;;;;;;;4135462;28;21074;-41
2022/05/17 10:07:43;;;;;;;3.03;0.22;;;;;;;;;;4140744;28;20049;-42
2022/05/17 10:09:45;;;;;;;0.20;0.20;;;;;;;;;;4135962;28;20860;-42
2022/05/17 10:11:52;;;;;;;0.63;0.30;;;;;;;;;;4146224;28;20079;-40
2022/05/17 10:13:56;;;;;;;0.65;0.25;;;;;;;;;;4131038;28;20053;-42
2022/05/17 10:16:02;;;;;;;1.75;0.30;;;;;;;;;;4136649;28;20052;-42
2022/05/17 10:18:08;;;;;;;0.30;0.30;;;;;;;;;;4146101;28;20110;-39
2022/05/17 10:20:19;;;;;;;1.75;0.40;;;;;;;;;;4148429;28;20556;-41
2022/05/17 10:22:39;;;;;;;0.43;0.30;;;;;;;;;;4136653;28;20053;-40
2022/05/17 10:24:59;;;;;;;0.77;0.47;;;;;;;;;;4157296;28;20145;-39
2022/05/17 10:27:23;;;;;;;1.05;0.20;;;;;;;;;;4144478;28;20060;-42
2022/05/17 10:29:41;;;;;;;1.45;0.22;;;;;;;;;;4146696;28;20248;-42
2022/05/17 10:31:46;;;;;;;0.28;0.20;;;;;;;;;;4142608;28;20057;-39
2022/05/17 10:33:54;;;;;;;0.63;0.43;;;;;;;;;;4178330;28;20718;-40
2022/05/17 10:35:58;;;;;;;1.17;0.40;;;;;;;;;;4143459;28;20524;-40
2022/05/17 10:38:06;;;;;;;0.77;0.40;;;;;;;;;;4132001;28;20053;-41
2022/05/17 10:40:09;;;;;;;0.30;0.25;;;;;;;;;;4141105;28;20788;-37
2022/05/17 10:42:11;;;;;;;1.17;0.20;;;;;;;;;;4143950;28;20185;-43
2022/05/17 10:44:14;;;;;;;0.80;0.30;;;;;;;;;;4149887;28;20898;-40
2022/05/17 10:46:18;;;;;;;1.52;0.35;;;;;;;;;;4142519;28;20045;-43
2022/05/17 10:48:19;;;;;;;3.35;0.55;;;;;;;;;;4132914;28;20138;-40
2022/05/17 10:50:23;;;;;;;1.55;0.30;;;;;;;;;;4128438;28;20097;-42
2022/05/17 10:52:37;;;;;;;0.95;0.30;;;;;;;;;;4130971;28;20368;-43
2022/05/17 10:54:38;;;;;;;;;;;;;;;;;;4113920;28;20107;-38
2022/05/17 10:56:51;;;;;;;3.25;0.30;;;;;;;;;;4123024;28;19967;-43
2022/05/17 10:59:05;;;;;;;1.35;0.65;;;;;;;;;;4121707;28;20559;-40
2022/05/17 11:01:26;;;;;;;0.45;0.30;;;;;;;;;;4111460;28;20740;-40
2022/05/17 11:03:43;;;;;;;0.63;0.30;;;;;;;;;;4136171;28;20512;-42
2022/05/17 11:05:44;;;;;;;1.08;0.30;;;;;;;;;;4159883;28;20052;-43
2022/05/17 11:07:45;;;;;;;11.05;0.70;;;;;;;;;;4146169;28;20048;-41
2022/05/17 11:09:52;;;;;;;1.85;0.20;;;;;;;;;;4133839;28;21011;-43
2022/05/17 11:11:53;;;;;;;0.95;0.20;;;;;;;;;;4138360;28;20052;-43
2022/05/17 11:13:58;;;;;;;3.33;0.30;;;;;;;;;;4137739;28;20049;-43
2022/05/17 11:16:06;;;;;;;1.25;0.20;;;;;;;;;;4135011;28;20373;-43
2022/05/17 11:18:13;;;;;;;0.30;0.20;;;;;;;;;;4130063;28;20111;-43
2022/05/17 11:20:21;;;;;;;1.40;0.30;;;;;;;;;;4139379;28;20060;-43
2022/05/17 11:22:28;;;;;;;3.08;0.30;;;;;;;;;;4131909;28;20555;-42
2022/05/17 11:24:38;;;;;;;1.05;0.22;;;;;;;;;;4129185;28;20052;-42
2022/05/17 11:26:39;;;;;;;0.60;0.40;;;;;;;;;;4150946;28;20044;-43
2022/05/17 11:29:02;;;;;;;0.43;0.20;;;;;;;;;;4139443;28;20057;-43
2022/05/17 11:31:08;;;;;;;1.65;0.30;;;;;;;;;;4128273;28;20983;-42
2022/05/17 11:33:09;;;;;;;1.52;0.17;;;;;;;;;;4130887;28;20833;-38
2022/05/17 11:35:26;;;;;;;0.85;0.30;;;;;;;;;;4132001;28;20579;-44
2022/05/17 11:37:33;;;;;;;0.63;0.20;;;;;;;;;;4131798;28;20091;-42
2022/05/17 11:39:41;;;;;;;3.08;0.30;;;;;;;;;;4147257;28;20071;-39
2022/05/17 11:41:44;;;;;;;0.65;0.32;;;;;;;;;;4137530;28;20049;-41
2022/05/17 11:44:08;;;;;;;0.50;0.20;;;;;;;;;;4143325;28;21080;-43
2022/05/17 11:46:24;;;;;;;1.13;0.43;;;;;;;;;;4133075;28;20496;-41
2022/05/17 11:48:46;;;;;;;1.80;0.30;;;;;;;;;;4132069;28;20053;-41
2022/05/17 11:50:57;;;;;;;2.67;0.30;;;;;;;;;;4141085;28;20045;-42
2022/05/17 11:53:17;;;;;;;1.63;0.15;;;;;;;;;;4142684;28;20685;-41
2022/05/17 11:55:22;;;;;;;0.25;0.10;;;;;;;;;;4128089;28;20222;-42
2022/05/17 11:57:23;;;;;;;0.40;0.30;;;;;;;;;;4134849;28;20107;-42
2022/05/17 11:59:27;;;;;;;0.82;0.20;;;;;;;;;;4128980;28;20056;-42
2022/05/17 12:01:29;;;;;;;0.73;0.22;;;;;;;;;;4117988;28;20057;-42
2022/05/17 12:03:47;;;;;;;0.65;0.20;;;;;;;;;;4127567;28;20555;-41
2022/05/17 12:05:51;;;;;;;1.73;0.20;;;;;;;;;;4137138;28;20661;-42
2022/05/17 12:07:52;;;;;;;0.93;0.20;;;;;;;;;;4134977;28;20057;-42
2022/05/17 12:09:54;;;;;;;0.55;0.30;;;;;;;;;;4156458;28;20063;-40
2022/05/17 12:12:01;;;;;;;1.52;0.30;;;;;;;;;;4133449;28;20580;-42
2022/05/17 12:14:08;;;;;;;0.52;0.20;;;;;;;;;;4139413;28;20655;-42
2022/05/17 12:16:13;;;;;;;0.85;0.10;;;;;;;;;;4136419;28;20049;-41
2022/05/17 12:18:17;;;;;;;2.97;0.30;;;;;;;;;;4138148;28;20189;-42
2022/05/17 12:20:24;;;;;;;0.28;0.15;;;;;;;;;;4133909;28;20423;-41
2022/05/17 12:22:25;;;;;;;1.98;0.45;;;;;;;;;;4155215;28;20059;-40
2022/05/17 12:24:41;;;;;;;2.38;0.25;;;;;;;;;;4141878;28;20514;-40
2022/05/17 12:26:42;;;;;;;1.52;0.25;;;;;;;;;;4145389;28;20602;-41
2022/05/17 12:28:49;;;;;;;0.85;0.20;;;;;;;;;;4148478;28;20491;-43
2022/05/17 12:31:00;;;;;;;1.42;0.28;;;;;;;;;;4136660;28;21097;-43
2022/05/17 12:33:02;;;;;;;0.45;0.20;;;;;;;;;;4146511;28;20642;-43